Time;durP1;ratioP1;P1;durP2;ratioP2;P2;SDS_P1;SDS_P2;PMS_P1;PMS_P2;Temp;Humidity;BMP_temperature;BMP_pressure;BME280_temperature;BME280_humidity;BME280_pressure;Samples;Min_cycle;Max_cycle;Signal;HPM_P1;HPM_P2
2022/10/21 00:00:47;;;;;;;49.40;30.90;;;;;;;10.03;100.00;100877.06;2080145;28;38223;-73
2022/10/21 00:01:49;;;;;;;41.78;28.88;;;;;;;10.05;100.00;100877.00;2088193;28;21299;-74
2022/10/21 00:02:51;;;;;;;41.83;29.42;;;;;;;10.06;100.00;100871.63;2087725;28;20041;-73
2022/10/21 00:03:53;;;;;;;41.72;29.10;;;;;;;10.08;100.00;100876.94;2087512;28;37157;-73
2022/10/21 00:04:54;;;;;;;43.15;29.45;;;;;;;10.08;100.00;100875.13;2088385;28;20144;-73
2022/10/21 00:05:56;;;;;;;44.85;30.88;;;;;;;10.11;100.00;100882.22;2080109;28;30152;-74
2022/10/21 00:06:58;;;;;;;51.58;29.75;;;;;;;10.12;100.00;100882.19;2079640;28;33241;-73
2022/10/21 00:07:59;;;;;;;41.47;27.83;;;;;;;10.10;100.00;100883.13;2080826;28;20898;-73
2022/10/21 00:09:01;;;;;;;42.30;28.27;;;;;;;10.11;100.00;100884.91;2080532;28;36587;-73
2022/10/21 00:10:05;;;;;;;43.33;28.95;;;;;;;10.10;100.00;100876.00;2080107;28;33714;-72
2022/10/21 00:11:08;;;;;;;42.22;29.63;;;;;;;10.12;100.00;100881.28;2087764;28;32082;-74
2022/10/21 00:12:10;;;;;;;42.50;28.67;;;;;;;10.14;100.00;100879.50;2087017;28;39761;-73
2022/10/21 00:13:14;;;;;;;38.10;26.55;;;;;;;10.13;100.00;100877.72;2080322;28;21822;-74
2022/10/21 00:14:16;;;;;;;41.13;27.55;;;;;;;10.15;100.00;100873.22;2079748;28;38255;-73
2022/10/21 00:15:17;;;;;;;43.45;28.67;;;;;;;10.18;100.00;100878.50;2087419;28;31955;-73
2022/10/21 00:16:19;;;;;;;41.63;27.40;;;;;;;10.18;100.00;100869.59;2088026;28;34426;-73
2022/10/21 00:17:21;;;;;;;42.75;28.23;;;;;;;10.20;100.00;100874.00;2080566;28;23197;-73
2022/10/21 00:18:23;;;;;;;40.00;28.30;;;;;;;10.25;100.00;100863.19;2080203;28;36683;-73
2022/10/21 00:19:24;;;;;;;40.45;27.38;;;;;;;10.26;100.00;100867.63;2079903;28;38032;-73
2022/10/21 00:20:26;;;;;;;37.53;26.52;;;;;;;10.25;100.00;100874.78;2079416;28;35388;-73
2022/10/21 00:21:28;;;;;;;39.28;27.10;;;;;;;10.27;100.00;100870.25;2078595;28;33159;-73
2022/10/21 00:22:30;;;;;;;46.05;27.45;;;;;;;10.28;100.00;100872.03;2080263;28;32565;-73
2022/10/21 00:23:31;;;;;;;41.10;27.95;;;;;;;10.29;100.00;100868.44;2079554;28;33012;-73
2022/10/21 00:24:33;;;;;;;39.25;27.17;;;;;;;10.30;100.00;100869.31;2079629;28;37640;-73
2022/10/21 00:25:37;;;;;;;41.60;27.40;;;;;;;10.30;100.00;100866.63;2080155;28;37503;-73
2022/10/21 00:26:38;;;;;;;39.45;26.08;;;;;;;10.29;100.00;100863.06;2079270;28;37328;-74
2022/10/21 00:27:40;;;;;;;36.42;25.80;;;;;;;10.30;100.00;100867.53;2079626;28;32437;-73
2022/10/21 00:28:42;;;;;;;37.15;26.10;;;;;;;10.32;100.00;100859.50;2079139;28;36608;-73
2022/10/21 00:29:44;;;;;;;42.53;27.65;;;;;;;10.32;100.00;100857.69;2080222;28;20054;-73
2022/10/21 00:30:45;;;;;;;45.25;28.65;;;;;;;10.35;100.00;100862.09;2079918;28;37427;-73
2022/10/21 00:31:47;;;;;;;38.25;24.80;;;;;;;10.35;100.00;100850.50;2080109;28;20135;-72
2022/10/21 00:32:49;;;;;;;41.70;26.70;;;;;;;10.40;100.00;100853.97;2079364;28;39089;-72
2022/10/21 00:33:51;;;;;;;37.78;27.60;;;;;;;10.40;100.00;100856.63;2079450;28;30997;-72
2022/10/21 00:34:52;;;;;;;36.53;25.48;;;;;;;10.42;100.00;100852.13;2079608;28;36317;-72
2022/10/21 00:36:01;;;;;;;35.08;25.45;;;;;;;10.41;100.00;100850.34;2086682;28;35107;-72
2022/10/21 00:37:03;;;;;;;39.22;25.73;;;;;;;10.40;100.00;100840.56;2079788;28;39438;-72
2022/10/21 00:38:05;;;;;;;41.55;26.17;;;;;;;10.40;100.00;100841.44;2080366;28;30945;-72
2022/10/21 00:39:10;;;;;;;36.28;23.75;;;;;;;10.42;100.00;100849.44;2079414;28;38737;-71
2022/10/21 00:40:12;;;;;;;35.88;25.67;;;;;;;10.42;100.00;100844.97;2078864;28;37108;-73
2022/10/21 00:41:18;;;;;;;36.40;24.67;;;;;;;10.42;100.00;100838.75;2078574;28;32093;-72
2022/10/21 00:42:27;;;;;;;32.33;23.95;;;;;;;10.42;100.00;100846.78;2080299;28;33541;-72
2022/10/21 00:43:29;;;;;;;39.28;25.98;;;;;;;10.41;100.00;100845.91;2088164;28;26023;-72
2022/10/21 00:44:33;;;;;;;33.38;24.95;;;;;;;10.41;100.00;100842.31;2086565;28;31570;-72
2022/10/21 00:45:35;;;;;;;40.13;25.52;;;;;;;10.40;100.00;100851.28;2080233;28;27598;-72
2022/10/21 00:47:00;;;;;;;37.67;25.30;;;;;;;10.39;100.00;100845.06;2080015;28;29301;-72
2022/10/21 00:48:14;;;;;;;32.58;23.83;;;;;;;10.38;100.00;100839.75;2080244;28;32622;-72
2022/10/21 00:49:53;;;;;;;33.65;25.25;;;;;;;10.37;100.00;100837.97;2087516;28;34552;-74
2022/10/21 00:51:06;;;;;;;38.72;26.05;;;;;;;10.34;100.00;100835.34;2075020;28;37329;-72
2022/10/21 00:52:17;;;;;;;34.75;25.50;;;;;;;10.31;100.00;100837.19;2079613;28;35415;-71
2022/10/21 00:53:23;;;;;;;33.70;24.95;;;;;;;10.30;100.00;100832.75;2079913;28;34473;-71
2022/10/21 00:54:25;;;;;;;35.88;25.25;;;;;;;10.28;100.00;100829.22;2079355;28;41391;-72
2022/10/21 00:55:33;;;;;;;36.85;25.63;;;;;;;10.29;100.00;100830.09;2079194;28;32513;-72
2022/10/21 00:56:36;;;;;;;34.78;25.05;;;;;;;10.27;100.00;100827.44;2080484;28;23298;-72
2022/10/21 00:57:38;;;;;;;36.95;25.85;;;;;;;10.27;100.00;100831.94;2087313;28;41815;-72
2022/10/21 00:58:40;;;;;;;32.28;25.35;;;;;;;10.25;100.00;100834.63;2087672;28;33792;-72
2022/10/21 00:59:49;;;;;;;35.85;26.58;;;;;;;10.24;100.00;100832.00;2087241;28;31287;-72
2022/10/21 01:00:56;;;;;;;37.30;26.90;;;;;;;10.24;100.00;100829.31;2087797;28;31069;-72
2022/10/21 01:01:58;;;;;;;35.25;26.10;;;;;;;10.22;100.00;100826.69;2085959;28;38639;-72
2022/10/21 01:03:00;;;;;;;40.17;26.65;;;;;;;10.20;100.00;100819.63;2080091;28;32808;-72
2022/10/21 01:04:03;;;;;;;35.78;26.17;;;;;;;10.18;100.00;100814.28;2087465;28;33108;-72
2022/10/21 01:05:07;;;;;;;37.88;27.05;;;;;;;10.17;100.00;100812.50;2087456;28;35778;-72
2022/10/21 01:06:12;;;;;;;34.92;26.15;;;;;;;10.17;100.00;100815.19;2087850;28;26192;-72
2022/10/21 01:07:14;;;;;;;36.33;27.15;;;;;;;10.16;100.00;100813.44;2086029;28;33902;-72
2022/10/21 01:08:17;;;;;;;41.72;27.60;;;;;;;10.14;100.00;100815.28;2079442;28;36195;-72
2022/10/21 01:09:20;;;;;;;35.10;25.88;;;;;;;10.12;100.00;100812.66;2079564;28;31778;-72
2022/10/21 01:10:22;;;;;;;39.50;28.98;;;;;;;10.12;100.00;100818.00;2079587;28;37021;-72
2022/10/21 01:11:25;;;;;;;36.50;25.65;;;;;;;10.08;100.00;100810.06;2087754;28;31995;-72
2022/10/21 01:13:27;;;;;;;32.80;25.52;;;;;;;10.05;100.00;100810.13;2087130;28;41216;-72
2022/10/21 01:14:52;;;;;;;36.05;24.85;;;;;;;10.02;100.00;100813.75;2045869;28;25960;-72
2022/10/21 01:16:35;;;;;;;34.17;25.65;;;;;;;10.05;100.00;100810.13;2046566;28;33419;-72
2022/10/21 01:18:02;;;;;;;38.30;25.50;;;;;;;10.02;100.00;100811.09;2071244;28;37419;-72
2022/10/21 01:19:19;;;;;;;38.10;26.05;;;;;;;9.99;100.00;100805.78;2071153;28;20092;-72
2022/10/21 01:20:50;;;;;;;34.05;24.40;;;;;;;9.97;100.00;100804.97;2071109;28;34437;-72
2022/10/21 01:22:04;;;;;;;33.60;23.02;;;;;;;9.98;100.00;100797.81;2071470;28;32541;-72
2022/10/21 01:23:26;;;;;;;35.42;25.90;;;;;;;10.01;100.00;100792.41;2071961;28;20968;-72
2022/10/21 01:25:12;;;;;;;41.13;25.42;;;;;;;9.98;100.00;100790.69;2071703;28;35885;-72
2022/10/21 01:26:52;;;;;;;34.30;24.58;;;;;;;9.97;100.00;100785.38;2054100;28;37198;-72
2022/10/21 01:28:49;;;;;;;36.67;25.15;;;;;;;9.97;100.00;100782.69;2054416;28;33469;-72
2022/10/21 01:30:08;;;;;;;36.55;25.17;;;;;;;9.92;100.00;100791.72;2046375;28;34142;-71
2022/10/21 01:31:41;;;;;;;40.53;26.00;;;;;;;9.87;100.00;100796.28;2054027;28;30165;-72
2022/10/21 01:33:12;;;;;;;36.13;25.85;;;;;;;9.87;100.00;100788.25;2070667;28;36938;-72
2022/10/21 01:35:02;;;;;;;37.75;25.35;;;;;;;9.93;100.00;100785.44;2070857;28;40083;-72
2022/10/21 01:36:31;;;;;;;38.97;26.95;;;;;;;9.91;100.00;100784.59;2070840;28;37382;-72
2022/10/21 01:38:09;;;;;;;37.22;25.40;;;;;;;9.88;100.00;100786.44;2071146;28;38268;-72
2022/10/21 01:39:25;;;;;;;35.63;25.10;;;;;;;9.89;100.00;100791.75;2078935;28;37857;-72
2022/10/21 01:40:43;;;;;;;40.45;26.13;;;;;;;9.86;100.00;100789.16;2074028;28;20038;-72
2022/10/21 01:42:11;;;;;;;41.85;27.23;;;;;;;9.86;100.00;100783.81;2071612;28;38260;-72
2022/10/21 01:43:32;;;;;;;38.50;26.08;;;;;;;9.84;100.00;100776.75;2071637;28;32476;-72
2022/10/21 01:44:49;;;;;;;38.75;25.08;;;;;;;9.83;100.00;100783.00;2082198;28;29355;-72
2022/10/21 01:46:00;;;;;;;42.55;28.23;;;;;;;9.87;100.00;100782.00;2083075;28;37425;-72
2022/10/21 01:47:11;;;;;;;38.63;26.58;;;;;;;9.86;100.00;100773.09;2087480;28;41089;-72
2022/10/21 01:48:22;;;;;;;43.22;28.33;;;;;;;9.87;100.00;100773.97;2087952;28;20041;-71
2022/10/21 01:49:37;;;;;;;40.75;25.67;;;;;;;9.86;100.00;100783.81;2089604;28;20835;-72
2022/10/21 01:50:49;;;;;;;39.97;26.58;;;;;;;9.85;100.00;100782.06;2090331;28;32371;-72
2022/10/21 01:51:53;;;;;;;39.28;27.08;;;;;;;9.81;100.00;100772.31;2090022;28;36423;-72
2022/10/21 01:53:05;;;;;;;37.83;26.27;;;;;;;9.80;100.00;100775.94;2089691;28;35877;-72
2022/10/21 01:54:18;;;;;;;42.97;27.05;;;;;;;9.78;100.00;100767.06;2081510;28;37677;-72
2022/10/21 01:55:23;;;;;;;42.85;27.25;;;;;;;9.79;100.00;100779.50;2084199;28;20042;-72
2022/10/21 01:56:28;;;;;;;38.00;25.23;;;;;;;9.78;100.00;100769.75;2088257;28;40827;-72
2022/10/21 01:57:41;;;;;;;41.42;26.48;;;;;;;9.78;100.00;100775.09;2090300;28;29514;-72
2022/10/21 01:58:46;;;;;;;42.95;27.63;;;;;;;9.80;100.00;100769.69;2088424;28;30167;-72
2022/10/21 01:59:50;;;;;;;42.33;27.05;;;;;;;9.77;100.00;100762.63;2081585;28;26378;-71
2022/10/21 02:00:56;;;;;;;39.10;25.88;;;;;;;9.76;100.00;100763.53;2081953;28;35787;-72
2022/10/21 02:02:03;;;;;;;39.55;26.63;;;;;;;9.74;100.00;100763.59;2082666;28;20393;-71
2022/10/21 02:03:10;;;;;;;39.60;26.35;;;;;;;9.76;100.00;100760.84;2081896;28;25955;-72
2022/10/21 02:04:17;;;;;;;38.85;26.95;;;;;;;9.74;100.00;100768.94;2074911;28;38302;-72
2022/10/21 02:05:26;;;;;;;40.20;27.13;;;;;;;9.74;100.00;100768.03;2075280;28;32331;-72
2022/10/21 02:06:28;;;;;;;36.85;25.77;;;;;;;9.71;100.00;100765.44;2081875;28;30524;-72
2022/10/21 02:07:30;;;;;;;41.40;26.58;;;;;;;9.73;100.00;100758.28;2082357;28;33674;-72
2022/10/21 02:08:32;;;;;;;45.78;28.02;;;;;;;9.76;100.00;100755.50;2081467;28;29824;-72
2022/10/21 02:09:34;;;;;;;41.78;27.77;;;;;;;9.73;100.00;100750.25;2081733;28;35082;-71
2022/10/21 02:10:40;;;;;;;42.22;28.67;;;;;;;9.74;100.00;100754.66;2073399;28;33566;-72
2022/10/21 02:11:48;;;;;;;41.40;27.13;;;;;;;9.73;100.00;100752.91;2075381;28;35024;-72
2022/10/21 02:12:55;;;;;;;37.83;26.90;;;;;;;9.72;100.00;100745.81;2088492;28;34932;-73
2022/10/21 02:14:26;;;;;;;41.67;27.48;;;;;;;9.69;100.00;100736.06;2081918;28;30930;-72
2022/10/21 02:15:31;;;;;;;40.88;27.10;;;;;;;9.73;100.00;100734.22;2073860;28;29561;-72
2022/10/21 02:16:38;;;;;;;42.63;27.88;;;;;;;9.72;100.00;100737.78;2065070;28;37935;-73
2022/10/21 02:17:50;;;;;;;45.67;28.52;;;;;;;9.72;100.00;100733.31;2066955;28;36504;-72
2022/10/21 02:18:55;;;;;;;38.58;25.52;;;;;;;9.69;100.00;100735.16;2073123;28;38946;-72
2022/10/21 02:20:01;;;;;;;37.60;25.83;;;;;;;9.69;100.00;100737.84;2067550;28;20877;-73
2022/10/21 02:21:15;;;;;;;39.70;26.65;;;;;;;9.69;100.00;100732.50;2073030;28;37341;-73
2022/10/21 02:22:21;;;;;;;40.28;26.92;;;;;;;9.68;100.00;100741.44;2073899;28;36661;-72
2022/10/21 02:23:49;;;;;;;38.53;26.48;;;;;;;9.67;100.00;100739.69;2073392;28;31094;-72
2022/10/21 02:25:07;;;;;;;44.42;28.95;;;;;;;9.68;100.00;100731.63;2073619;28;30576;-72
2022/10/21 02:26:09;;;;;;;35.55;25.75;;;;;;;9.66;100.00;100733.47;2073387;28;37013;-73
2022/10/21 02:27:11;;;;;;;41.50;27.73;;;;;;;9.66;100.00;100727.25;2073319;28;40509;-72
2022/10/21 02:28:13;;;;;;;40.00;25.88;;;;;;;9.67;100.00;100720.97;2065677;28;33514;-73
2022/10/21 02:29:21;;;;;;;50.00;29.02;;;;;;;9.65;100.00;100731.69;2073525;28;33327;-73
2022/10/21 02:30:22;;;;;;;42.85;28.13;;;;;;;9.66;100.00;100728.13;2073390;28;30033;-73
2022/10/21 02:31:38;;;;;;;44.08;27.52;;;;;;;9.67;100.00;100731.66;2073452;28;30034;-73
2022/10/21 02:33:07;;;;;;;45.55;27.42;;;;;;;9.66;100.00;100727.25;2073586;28;36079;-73
2022/10/21 02:34:40;;;;;;;44.88;29.33;;;;;;;9.67;100.00;100724.53;2074489;28;20030;-73
2022/10/21 02:36:10;;;;;;;47.05;28.88;;;;;;;9.68;100.00;100720.06;2073734;28;39949;-73
2022/10/21 02:37:32;;;;;;;40.53;26.20;;;;;;;9.71;100.00;100714.66;2073827;28;31379;-72
2022/10/21 02:38:51;;;;;;;44.40;27.50;;;;;;;9.69;100.00;100713.78;2073844;28;20046;-73
2022/10/21 02:40:00;;;;;;;43.17;29.20;;;;;;;9.71;100.00;100718.19;2073106;28;39668;-73
2022/10/21 02:41:08;;;;;;;44.83;28.08;;;;;;;9.73;100.00;100715.50;2067210;28;35093;-72
2022/10/21 02:42:14;;;;;;;44.83;28.73;;;;;;;9.73;100.00;100718.16;2073393;28;32835;-73
2022/10/21 02:43:29;;;;;;;42.10;27.85;;;;;;;9.72;100.00;100717.25;2073113;28;38408;-73
2022/10/21 02:44:31;;;;;;;43.53;28.15;;;;;;;9.72;100.00;100721.75;2075822;28;33488;-73
2022/10/21 02:45:33;;;;;;;38.30;26.30;;;;;;;9.70;100.00;100721.78;2081328;28;37855;-73
2022/10/21 02:46:42;;;;;;;38.95;25.50;;;;;;;9.68;100.00;100728.94;2082681;28;20141;-73
2022/10/21 02:47:47;;;;;;;42.90;27.08;;;;;;;9.67;100.00;100718.28;2081862;28;33441;-73
2022/10/21 02:48:48;;;;;;;37.28;23.65;;;;;;;9.68;100.00;100714.72;2082020;28;34935;-72
2022/10/21 02:49:50;;;;;;;44.35;28.02;;;;;;;9.74;100.00;100711.88;2089003;28;38012;-73
2022/10/21 02:50:52;;;;;;;43.25;29.33;;;;;;;9.75;100.00;100719.88;2082531;28;20041;-73
2022/10/21 02:51:54;;;;;;;46.20;28.08;;;;;;;9.74;100.00;100715.47;2082007;28;28592;-73
2022/10/21 02:52:56;;;;;;;41.85;26.67;;;;;;;9.76;100.00;100712.72;2089711;28;30556;-73
2022/10/21 02:53:58;;;;;;;44.38;29.15;;;;;;;9.75;100.00;100714.53;2083437;28;37068;-73
2022/10/21 02:54:59;;;;;;;43.05;28.00;;;;;;;9.78;100.00;100716.28;2082319;28;35522;-73
2022/10/21 02:56:02;;;;;;;40.90;27.17;;;;;;;9.79;100.00;100717.13;2082330;28;20558;-73
2022/10/21 02:57:04;;;;;;;46.97;28.75;;;;;;;9.81;100.00;100715.31;2089673;28;35813;-73
2022/10/21 02:58:05;;;;;;;50.60;29.88;;;;;;;9.83;100.00;100710.78;2088879;28;31966;-73
2022/10/21 02:59:08;;;;;;;44.65;29.50;;;;;;;9.84;100.00;100709.91;2082450;28;20034;-73
2022/10/21 03:00:14;;;;;;;44.95;28.00;;;;;;;9.84;100.00;100708.09;2081637;28;37303;-73
2022/10/21 03:01:18;;;;;;;39.03;25.70;;;;;;;9.84;100.00;100700.06;2079318;28;35436;-72
2022/10/21 03:02:20;;;;;;;51.78;29.48;;;;;;;9.87;100.00;100702.69;2080435;28;31692;-74
2022/10/21 03:03:22;;;;;;;42.92;27.88;;;;;;;9.87;100.00;100701.78;2088258;28;39559;-72
2022/10/21 03:04:23;;;;;;;48.05;29.45;;;;;;;9.90;100.00;100704.38;2079530;28;37357;-73
2022/10/21 03:05:25;;;;;;;47.47;29.38;;;;;;;9.91;100.00;100699.00;2080598;28;31600;-73
2022/10/21 03:06:29;;;;;;;45.03;27.63;;;;;;;9.91;100.00;100692.78;2087779;28;36423;-73
2022/10/21 03:07:31;;;;;;;49.90;29.73;;;;;;;9.92;100.00;100699.88;2080885;28;28517;-73
2022/10/21 03:08:32;;;;;;;38.22;26.60;;;;;;;9.92;100.00;100698.09;2087282;28;40262;-73
2022/10/21 03:09:34;;;;;;;41.35;26.50;;;;;;;9.89;100.00;100692.81;2088568;28;30896;-72
2022/10/21 03:10:36;;;;;;;41.05;27.02;;;;;;;9.91;100.00;100695.47;2080891;28;33705;-73
2022/10/21 03:11:37;;;;;;;45.55;28.10;;;;;;;9.92;100.00;100681.16;2080779;28;37037;-73
2022/10/21 03:12:39;;;;;;;40.30;27.80;;;;;;;9.91;100.00;100688.31;2079857;28;35742;-73
2022/10/21 03:13:41;;;;;;;43.47;27.67;;;;;;;9.90;100.00;100686.53;2081152;28;31027;-73
2022/10/21 03:14:44;;;;;;;47.42;28.20;;;;;;;9.91;100.00;100690.97;2088780;28;20044;-73
2022/10/21 03:15:48;;;;;;;39.38;26.80;;;;;;;9.91;100.00;100682.97;2087784;28;35425;-73
2022/10/21 03:16:50;;;;;;;44.60;28.52;;;;;;;9.92;100.00;100687.41;2087953;28;35318;-73
2022/10/21 03:17:52;;;;;;;40.05;27.00;;;;;;;9.94;100.00;100690.00;2087938;28;36182;-73
2022/10/21 03:18:53;;;;;;;42.85;29.05;;;;;;;9.93;100.00;100689.16;2080205;28;33322;-74
2022/10/21 03:19:55;;;;;;;43.78;27.92;;;;;;;9.94;100.00;100690.00;2081205;28;20042;-74
2022/10/21 03:20:57;;;;;;;42.22;28.73;;;;;;;9.94;100.00;100693.59;2080171;28;33959;-72
2022/10/21 03:21:59;;;;;;;39.50;25.17;;;;;;;9.93;100.00;100685.59;2080766;28;27905;-74
2022/10/21 03:23:00;;;;;;;41.53;27.67;;;;;;;9.92;100.00;100684.72;2080388;28;34757;-73
2022/10/21 03:24:04;;;;;;;46.88;28.25;;;;;;;9.91;100.00;100682.97;2080336;28;39603;-73
2022/10/21 03:25:09;;;;;;;46.95;28.27;;;;;;;9.91;100.00;100682.09;2080948;28;20113;-74
2022/10/21 03:26:13;;;;;;;38.85;25.02;;;;;;;9.89;100.00;100691.94;2080830;28;32389;-73
2022/10/21 03:27:14;;;;;;;42.45;26.13;;;;;;;9.88;100.00;100691.06;2087719;28;36188;-74
2022/10/21 03:28:16;;;;;;;44.15;27.70;;;;;;;9.90;100.00;100677.66;2088258;28;34515;-73
2022/10/21 03:29:18;;;;;;;42.08;26.75;;;;;;;9.90;100.00;100691.88;2079753;28;40064;-74
2022/10/21 03:30:19;;;;;;;47.13;27.27;;;;;;;9.87;100.00;100688.41;2081319;28;20045;-74
2022/10/21 03:31:21;;;;;;;41.78;26.52;;;;;;;9.84;100.00;100689.38;2080319;28;37341;-74
2022/10/21 03:32:23;;;;;;;38.03;24.77;;;;;;;9.84;100.00;100692.03;2081430;28;20038;-74
2022/10/21 03:33:25;;;;;;;41.85;27.55;;;;;;;9.83;100.00;100687.59;2080363;28;37708;-73
2022/10/21 03:34:26;;;;;;;44.55;28.02;;;;;;;9.84;100.00;100689.38;2080386;28;38308;-73
2022/10/21 03:35:28;;;;;;;45.72;27.67;;;;;;;9.86;100.00;100692.00;2088301;28;20041;-74
2022/10/21 03:36:33;;;;;;;43.80;28.15;;;;;;;9.85;100.00;100680.44;2088442;28;20033;-74
2022/10/21 03:37:34;;;;;;;46.25;29.35;;;;;;;9.89;100.00;100675.91;2080520;28;30359;-74
2022/10/21 03:38:36;;;;;;;46.60;27.73;;;;;;;9.89;100.00;100676.78;2080658;28;32436;-74
2022/10/21 03:39:38;;;;;;;44.35;28.27;;;;;;;9.89;100.00;100681.25;2080001;28;30957;-74
2022/10/21 03:40:39;;;;;;;49.53;28.85;;;;;;;9.88;100.00;100675.00;2081374;28;20884;-74
2022/10/21 03:41:41;;;;;;;40.83;25.17;;;;;;;9.88;100.00;100683.03;2080151;28;39375;-74
2022/10/21 03:42:43;;;;;;;45.55;25.77;;;;;;;9.89;100.00;100675.91;2080410;28;36145;-73
2022/10/21 03:43:44;;;;;;;46.65;28.30;;;;;;;9.89;100.00;100681.25;2080348;28;28923;-74
2022/10/21 03:44:46;;;;;;;35.20;24.02;;;;;;;9.87;100.00;100673.25;2080685;28;36767;-74
2022/10/21 03:45:48;;;;;;;42.28;27.23;;;;;;;9.87;100.00;100667.91;2080181;28;32057;-74
2022/10/21 03:46:49;;;;;;;48.75;27.88;;;;;;;9.88;100.00;100661.63;2080781;28;32999;-74
2022/10/21 03:47:51;;;;;;;50.58;29.73;;;;;;;9.92;100.00;100659.75;2080222;28;30657;-74
2022/10/21 03:48:53;;;;;;;42.95;26.95;;;;;;;9.94;100.00;100657.91;2087809;28;37646;-74
2022/10/21 03:49:59;;;;;;;41.47;26.98;;;;;;;9.93;100.00;100659.72;2087154;28;31640;-74
2022/10/21 03:51:03;;;;;;;49.78;28.50;;;;;;;9.92;100.00;100655.31;2088479;28;20053;-74
2022/10/21 03:52:05;;;;;;;48.47;28.95;;;;;;;9.93;100.00;100659.72;2086463;28;38410;-74
2022/10/21 03:53:06;;;;;;;42.47;27.42;;;;;;;9.94;100.00;100657.91;2080453;28;30569;-74
2022/10/21 03:54:19;;;;;;;44.03;26.88;;;;;;;9.92;100.00;100658.00;2080171;28;20943;-75
2022/10/21 03:55:24;;;;;;;45.38;27.80;;;;;;;9.91;100.00;100668.72;2081183;28;31840;-74
2022/10/21 03:56:25;;;;;;;40.45;25.52;;;;;;;9.88;100.00;100664.31;2080814;28;20034;-74
2022/10/21 03:57:27;;;;;;;43.40;27.58;;;;;;;9.87;100.00;100662.56;2080060;28;40480;-74
2022/10/21 03:58:29;;;;;;;37.78;24.70;;;;;;;9.85;100.00;100664.41;2079828;28;29989;-74
2022/10/21 03:59:31;;;;;;;41.03;26.48;;;;;;;9.88;100.00;100668.78;2088055;28;31461;-73
2022/10/21 04:00:33;;;;;;;38.70;25.33;;;;;;;9.87;100.00;100659.91;2087408;28;31263;-74
2022/10/21 04:01:37;;;;;;;43.05;26.75;;;;;;;9.90;100.00;100661.59;2081229;28;20038;-74
2022/10/21 04:02:39;;;;;;;49.15;29.70;;;;;;;9.93;100.00;100661.53;2079047;28;33152;-74
2022/10/21 04:03:41;;;;;;;50.22;28.10;;;;;;;9.93;100.00;100656.19;2080063;28;30251;-74
2022/10/21 04:04:43;;;;;;;45.75;27.48;;;;;;;9.94;100.00;100657.91;2080133;28;30582;-74
2022/10/21 04:05:44;;;;;;;50.33;30.90;;;;;;;9.97;100.00;100646.28;2080328;28;38298;-74
2022/10/21 04:06:48;;;;;;;52.28;30.50;;;;;;;10.02;100.00;100647.94;2080082;28;30756;-74
2022/10/21 04:07:50;;;;;;;53.65;30.58;;;;;;;10.02;100.00;100649.72;2079827;28;36392;-74
2022/10/21 04:08:53;;;;;;;48.50;29.88;;;;;;;10.03;100.00;100646.13;2078977;28;37422;-75
2022/10/21 04:09:55;;;;;;;57.63;31.27;;;;;;;10.07;100.00;100645.16;2081073;28;20176;-75
2022/10/21 04:10:57;;;;;;;47.42;30.35;;;;;;;10.07;100.00;100647.81;2079758;28;39182;-74
2022/10/21 04:11:59;;;;;;;49.67;29.17;;;;;;;10.06;100.00;100654.94;2087608;28;31187;-75
2022/10/21 04:13:01;;;;;;;49.72;28.40;;;;;;;10.05;100.00;100653.22;2087186;28;36694;-74
2022/10/21 04:14:03;;;;;;;49.65;29.77;;;;;;;10.08;100.00;100657.59;2079502;28;39100;-74
2022/10/21 04:15:06;;;;;;;53.50;30.05;;;;;;;10.09;100.00;100660.22;2079081;28;20046;-74
2022/10/21 04:16:14;;;;;;;55.00;32.10;;;;;;;10.09;100.00;100662.03;2079862;28;30019;-75
2022/10/21 04:17:15;;;;;;;53.58;30.05;;;;;;;10.10;100.00;100653.06;2088080;28;37344;-75
2022/10/21 04:18:19;;;;;;;49.92;30.10;;;;;;;10.12;100.00;100653.91;2087430;28;34028;-75
2022/10/21 04:19:21;;;;;;;52.45;29.63;;;;;;;10.12;100.00;100653.91;2079769;28;39258;-74
2022/10/21 04:20:24;;;;;;;53.42;31.05;;;;;;;10.15;100.00;100652.97;2080861;28;20034;-75
2022/10/21 04:21:26;;;;;;;55.08;31.08;;;;;;;10.15;100.00;100661.88;2079855;28;35539;-75
2022/10/21 04:22:28;;;;;;;50.38;29.23;;;;;;;10.16;100.00;100658.28;2079561;28;30684;-75
2022/10/21 04:23:29;;;;;;;55.28;31.45;;;;;;;10.16;100.00;100663.63;2077883;28;36885;-75
2022/10/21 04:24:31;;;;;;;51.00;30.55;;;;;;;10.17;100.00;100662.69;2080362;28;34517;-74
2022/10/21 04:25:33;;;;;;;57.30;31.83;;;;;;;10.17;100.00;100652.00;2080543;28;20050;-74
2022/10/21 04:26:35;;;;;;;50.85;29.48;;;;;;;10.17;100.00;100657.34;2080267;28;41247;-75
2022/10/21 04:27:36;;;;;;;51.58;29.77;;;;;;;10.17;100.00;100652.00;2087943;28;27814;-74
2022/10/21 04:28:38;;;;;;;49.85;29.35;;;;;;;10.19;100.00;100657.31;2087940;28;31139;-75
2022/10/21 04:29:40;;;;;;;46.67;30.30;;;;;;;10.18;100.00;100661.78;2087167;28;41256;-74
2022/10/21 04:30:42;;;;;;;50.47;30.70;;;;;;;10.19;100.00;100657.31;2088373;28;20068;-75
2022/10/21 04:31:44;;;;;;;52.17;30.05;;;;;;;10.20;100.00;100659.94;2079465;28;33346;-74
2022/10/21 04:32:46;;;;;;;48.97;28.77;;;;;;;10.22;100.00;100660.78;2080384;28;35958;-75
2022/10/21 04:33:48;;;;;;;49.83;30.80;;;;;;;10.24;100.00;100669.66;2079617;28;36863;-75
2022/10/21 04:34:55;;;;;;;45.92;28.73;;;;;;;10.26;100.00;100669.59;2079445;28;37448;-75
2022/10/21 04:35:57;;;;;;;53.45;31.55;;;;;;;10.26;100.00;100667.81;2080215;28;20050;-75
2022/10/21 04:36:59;;;;;;;44.70;28.67;;;;;;;10.28;100.00;100667.78;2079910;28;33848;-75
2022/10/21 04:38:05;;;;;;;48.03;28.70;;;;;;;10.30;100.00;100660.56;2080685;28;20996;-75
2022/10/21 04:39:06;;;;;;;49.88;30.33;;;;;;;10.30;100.00;100664.16;2087707;28;38411;-75
2022/10/21 04:40:09;;;;;;;52.70;30.55;;;;;;;10.31;100.00;100660.56;2087364;28;35959;-74
2022/10/21 04:41:10;;;;;;;45.92;28.92;;;;;;;10.34;100.00;100656.06;2080467;28;29171;-74
2022/10/21 04:42:12;;;;;;;53.05;30.73;;;;;;;10.37;100.00;100653.31;2079843;28;40024;-74
2022/10/21 04:43:16;;;;;;;51.65;31.77;;;;;;;10.37;100.00;100651.50;2080517;28;20046;-74
2022/10/21 04:44:18;;;;;;;51.80;30.98;;;;;;;10.39;100.00;100655.03;2079479;28;38838;-74
2022/10/21 04:45:19;;;;;;;48.28;29.95;;;;;;;10.40;100.00;100650.56;2079906;28;37377;-75
2022/10/21 04:46:21;;;;;;;52.20;30.30;;;;;;;10.41;100.00;100641.59;2087773;28;30140;-75
2022/10/21 04:47:23;;;;;;;46.97;29.20;;;;;;;10.42;100.00;100638.88;2086904;28;32547;-74
2022/10/21 04:48:25;;;;;;;48.58;29.48;;;;;;;10.43;100.00;100639.78;2080416;28;21297;-75
2022/10/21 04:49:26;;;;;;;54.67;31.30;;;;;;;10.43;100.00;100629.94;2080516;28;31170;-74
2022/10/21 04:50:28;;;;;;;49.40;30.05;;;;;;;10.45;100.00;100636.13;2087485;28;36470;-75
2022/10/21 04:51:34;;;;;;;45.10;28.92;;;;;;;10.45;100.00;100635.25;2087849;28;20079;-74
2022/10/21 04:52:37;;;;;;;47.33;29.35;;;;;;;10.44;100.00;100634.34;2080034;28;30447;-74
2022/10/21 04:53:41;;;;;;;53.75;29.40;;;;;;;10.46;100.00;100629.88;2080850;28;20567;-74
2022/10/21 04:54:42;;;;;;;48.75;29.10;;;;;;;10.46;100.00;100628.97;2080428;28;20045;-74
2022/10/21 04:55:44;;;;;;;45.47;27.83;;;;;;;10.46;100.00;100632.53;2080222;28;27615;-74
2022/10/21 04:56:46;;;;;;;51.65;29.25;;;;;;;10.45;100.00;100633.44;2080010;28;29415;-74
2022/10/21 04:57:48;;;;;;;44.13;26.77;;;;;;;10.45;100.00;100636.13;2080119;28;37588;-74
2022/10/21 04:58:49;;;;;;;43.80;26.98;;;;;;;10.45;100.00;100632.56;2079632;28;33331;-74
2022/10/21 04:59:51;;;;;;;42.42;26.75;;;;;;;10.44;100.00;100626.31;2080978;28;20042;-74
2022/10/21 05:00:53;;;;;;;44.88;28.02;;;;;;;10.44;100.00;100626.31;2079504;28;31176;-74
2022/10/21 05:01:55;;;;;;;48.75;28.60;;;;;;;10.45;100.00;100627.22;2080771;28;34554;-74